Time,TemperatureF,DewpointF,PressureIn,WindDirection,WindDirectionDegrees,WindSpeedMPH,WindSpeedGustMPH,Humidity,HourlyPrecipIn,Conditions,Clouds,dailyrainin,SoftwareType,DateUTC
2013-03-09 00:08:00,29.9,21.6,29.96,North,355,1.0,1.0,71,0.00,,,0.00,Wunderground v.1.15,2013-03-09 05:08:00,
2013-03-09 00:19:00,29.3,21.4,29.96,North,5,2.0,2.0,72,0.00,,,0.00,Wunderground v.1.15,2013-03-09 05:19:00,
2013-03-09 00:28:00,28.6,21.0,29.96,NNW,336,3.0,4.0,73,0.00,,,0.00,Wunderground v.1.15,2013-03-09 05:28:00,
2013-03-09 00:38:00,28.8,21.2,29.97,NNW,343,3.0,3.0,73,0.00,,,0.00,Wunderground v.1.15,2013-03-09 05:38:00,
2013-03-09 00:48:00,28.8,20.9,29.97,NNW,344,2.0,2.0,72,0.00,,,0.00,Wunderground v.1.15,2013-03-09 05:48:00,
2013-03-09 00:59:00,29.9,21.6,29.97,NNW,338,4.0,4.0,71,0.00,,,0.00,Wunderground v.1.15,2013-03-09 05:59:00,
2013-03-09 01:08:00,29.0,21.1,29.97,NNE,13,3.0,3.0,72,0.00,,,0.00,Wunderground v.1.15,2013-03-09 06:08:00,
2013-03-09 01:18:00,28.6,21.4,29.97,NNE,19,1.0,5.0,74,0.00,,,0.00,Wunderground v.1.15,2013-03-09 06:18:00,
2013-03-09 01:28:00,28.7,21.8,29.97,NNE,19,0.0,0.0,75,0.00,,,0.00,Wunderground v.1.15,2013-03-09 06:28:00,
2013-03-09 01:38:00,28.5,21.6,29.97,NNE,19,0.0,0.0,75,0.00,,,0.00,Wunderground v.1.15,2013-03-09 06:38:00,
2013-03-09 01:48:00,28.1,21.8,29.97,NNE,19,1.0,1.0,77,0.00,,,0.00,Wunderground v.1.15,2013-03-09 06:48:00,
2013-03-09 01:58:00,28.1,21.8,29.96,NNE,19,1.0,1.0,77,0.00,,,0.00,Wunderground v.1.15,2013-03-09 06:58:00,
2013-03-09 02:08:00,27.8,21.2,29.96,NNE,19,0.0,10.0,76,0.00,,,0.00,Wunderground v.1.15,2013-03-09 07:08:00,
2013-03-09 02:18:00,27.0,21.1,29.96,NNE,19,0.0,10.0,78,0.00,,,0.00,Wunderground v.1.15,2013-03-09 07:18:00,
2013-03-09 02:28:00,26.8,21.2,29.96,NNE,19,0.0,0.0,79,0.00,,,0.00,Wunderground v.1.15,2013-03-09 07:28:00,
2013-03-09 02:39:00,26.6,21.0,29.96,NNE,19,0.0,0.0,79,0.00,,,0.00,Wunderground v.1.15,2013-03-09 07:39:00,
2013-03-09 02:48:00,26.5,20.9,29.96,NNE,19,0.0,0.0,79,0.00,,,0.00,Wunderground v.1.15,2013-03-09 07:48:00,
2013-03-09 02:58:00,26.1,20.8,29.96,NNE,19,0.0,0.0,80,0.00,,,0.00,Wunderground v.1.15,2013-03-09 07:58:00,
2013-03-09 03:08:00,25.7,20.7,29.96,NNE,19,0.0,4.0,81,0.00,,,0.00,Wunderground v.1.15,2013-03-09 08:08:00,
2013-03-09 03:18:00,25.3,20.3,29.96,NNE,19,0.0,4.0,81,0.00,,,0.00,Wunderground v.1.15,2013-03-09 08:18:00,
2013-03-09 03:29:00,24.8,20.4,29.96,NNE,19,0.0,0.0,83,0.00,,,0.00,Wunderground v.1.15,2013-03-09 08:29:00,
2013-03-09 03:38:00,25.3,20.9,29.96,NNE,19,0.0,0.0,83,0.00,,,0.00,Wunderground v.1.15,2013-03-09 08:38:00,
2013-03-09 03:48:00,25.4,20.7,29.96,NNE,19,1.0,2.0,82,0.00,,,0.00,Wunderground v.1.15,2013-03-09 08:48:00,
2013-03-09 03:59:00,25.1,20.7,29.97,NNE,19,0.0,0.0,83,0.00,,,0.00,Wunderground v.1.15,2013-03-09 08:59:00,
2013-03-09 04:09:00,24.7,20.3,29.97,NNE,19,0.0,1.0,83,0.00,,,0.00,Wunderground v.1.15,2013-03-09 09:09:00,
2013-03-09 04:18:00,24.2,20.1,29.97,NNE,19,0.0,1.0,84,0.00,,,0.00,Wunderground v.1.15,2013-03-09 09:18:00,
2013-03-09 04:28:00,23.9,20.0,29.98,NNE,19,0.0,0.0,85,0.00,,,0.00,Wunderground v.1.15,2013-03-09 09:28:00,
2013-03-09 04:38:00,24.0,20.4,29.98,NNE,19,0.0,0.0,86,0.00,,,0.00,Wunderground v.1.15,2013-03-09 09:38:00,
2013-03-09 04:48:00,24.2,20.3,29.98,NNE,19,0.0,0.0,85,0.00,,,0.00,Wunderground v.1.15,2013-03-09 09:48:00,
2013-03-09 04:58:00,24.4,20.5,29.98,NNE,19,0.0,0.0,85,0.00,,,0.00,Wunderground v.1.15,2013-03-09 09:58:00,
2013-03-09 05:08:00,24.5,20.6,29.99,NNE,19,0.0,2.0,85,0.00,,,0.00,Wunderground v.1.15,2013-03-09 10:08:00,
2013-03-09 05:18:00,24.6,20.7,29.99,NNE,19,0.0,2.0,85,0.00,,,0.00,Wunderground v.1.15,2013-03-09 10:18:00,
2013-03-09 05:28:00,24.5,20.4,30.00,NNE,19,0.0,0.0,84,0.00,,,0.00,Wunderground v.1.15,2013-03-09 10:28:00,
2013-03-09 05:39:00,24.3,20.2,30.00,NNE,19,0.0,0.0,84,0.00,,,0.00,Wunderground v.1.15,2013-03-09 10:39:00,
2013-03-09 05:48:00,24.2,20.3,30.00,NNE,19,0.0,0.0,85,0.00,,,0.00,Wunderground v.1.15,2013-03-09 10:48:00,
2013-03-09 05:58:00,23.8,19.7,30.00,NNE,19,0.0,0.0,84,0.00,,,0.00,Wunderground v.1.15,2013-03-09 10:58:00,
2013-03-09 06:08:00,23.1,19.3,30.00,NNE,19,0.0,0.0,85,0.00,,,0.00,Wunderground v.1.15,2013-03-09 11:08:00,
2013-03-09 06:18:00,22.4,18.8,30.01,NNE,19,0.0,0.0,86,0.00,,,0.00,Wunderground v.1.15,2013-03-09 11:18:00,
2013-03-09 06:28:00,22.5,19.2,30.01,NNE,19,0.0,1.0,87,0.00,,,0.00,Wunderground v.1.15,2013-03-09 11:28:00,
2013-03-09 06:38:00,23.1,19.8,30.01,NNE,19,0.0,0.0,87,0.00,,,0.00,Wunderground v.1.15,2013-03-09 11:38:00,
2013-03-09 06:49:00,24.2,20.6,30.01,NNE,19,0.0,0.0,86,0.00,,,0.00,Wunderground v.1.15,2013-03-09 11:49:00,
2013-03-09 06:58:00,25.4,21.0,30.02,NNE,19,0.0,0.0,83,0.00,,,0.00,Wunderground v.1.15,2013-03-09 11:58:00,
2013-03-09 07:08:00,26.7,21.1,30.02,NNE,19,0.0,2.0,79,0.00,,,0.00,Wunderground v.1.15,2013-03-09 12:08:00,
2013-03-09 07:18:00,27.7,21.4,30.02,NNE,19,1.0,1.0,77,0.00,,,0.00,Wunderground v.1.15,2013-03-09 12:18:00,
2013-03-09 07:28:00,28.5,21.6,30.02,NNE,19,1.0,1.0,75,0.00,,,0.00,Wunderground v.1.15,2013-03-09 12:28:00,
2013-03-09 07:39:00,28.7,21.5,30.02,NNE,19,0.0,0.0,74,0.00,,,0.00,Wunderground v.1.15,2013-03-09 12:39:00,
2013-03-09 07:48:00,29.8,21.9,30.02,NNE,19,1.0,1.0,72,0.00,,,0.00,Wunderground v.1.15,2013-03-09 12:48:00,
2013-03-09 07:59:00,30.3,22.0,30.02,NNE,19,2.0,2.0,71,0.00,,,0.00,Wunderground v.1.15,2013-03-09 12:59:00,
2013-03-09 08:08:00,31.3,22.3,30.02,NNE,19,2.0,4.0,69,0.00,,,0.00,Wunderground v.1.15,2013-03-09 13:08:00,
2013-03-09 08:18:00,31.6,21.9,30.02,NNE,22,2.0,4.0,67,0.00,,,0.00,Wunderground v.1.15,2013-03-09 13:18:00,
2013-03-09 08:29:00,32.0,21.6,30.02,NNE,22,1.0,1.0,65,0.00,,,0.00,Wunderground v.1.15,2013-03-09 13:29:00,
2013-03-09 08:38:00,31.3,21.3,30.02,WSW,238,1.0,2.0,66,0.00,,,0.00,Wunderground v.1.15,2013-03-09 13:38:00,
2013-03-09 08:48:00,31.8,22.1,30.02,WSW,238,1.0,1.0,67,0.00,,,0.00,Wunderground v.1.15,2013-03-09 13:48:00,
2013-03-09 08:58:00,33.4,22.5,30.02,WSW,238,0.0,0.0,64,0.00,,,0.00,Wunderground v.1.15,2013-03-09 13:58:00,
2013-03-09 09:08:00,34.9,23.2,30.02,WSW,238,0.0,4.0,62,0.00,,,0.00,Wunderground v.1.15,2013-03-09 14:08:00,
2013-03-09 09:19:00,35.3,22.8,30.02,WSW,238,1.0,4.0,60,0.00,,,0.00,Wunderground v.1.15,2013-03-09 14:19:00,
2013-03-09 09:28:00,35.7,23.6,30.02,SSW,205,1.0,3.0,61,0.00,,,0.00,Wunderground v.1.15,2013-03-09 14:28:00,
2013-03-09 09:39:00,36.3,23.3,30.01,SSW,206,1.0,1.0,59,0.00,,,0.00,Wunderground v.1.15,2013-03-09 14:39:00,
2013-03-09 09:48:00,37.7,24.2,30.02,SSW,206,0.0,0.0,58,0.00,,,0.00,Wunderground v.1.15,2013-03-09 14:48:00,
2013-03-09 09:58:00,38.6,24.2,30.02,SSW,206,1.0,2.0,56,0.00,,,0.00,Wunderground v.1.15,2013-03-09 14:58:00,
2013-03-09 10:08:00,39.0,23.3,30.02,SSW,201,2.0,4.0,53,0.00,,,0.00,Wunderground v.1.15,2013-03-09 15:08:00,
2013-03-09 10:18:00,39.0,25.0,30.02,South,189,2.0,2.0,57,0.00,,,0.00,Wunderground v.1.15,2013-03-09 15:18:00,
2013-03-09 10:28:00,39.5,22.8,30.02,South,188,2.0,3.0,51,0.00,,,0.00,Wunderground v.1.15,2013-03-09 15:28:00,
2013-03-09 10:38:00,40.0,23.3,30.01,SSW,193,2.0,2.0,51,0.00,,,0.00,Wunderground v.1.15,2013-03-09 15:38:00,
2013-03-09 10:49:00,40.5,23.3,30.01,South,191,2.0,3.0,50,0.00,,,0.00,Wunderground v.1.15,2013-03-09 15:49:00,
2013-03-09 10:58:00,41.6,23.8,30.01,South,190,2.0,2.0,49,0.00,,,0.00,Wunderground v.1.15,2013-03-09 15:58:00,
2013-03-09 11:08:00,43.1,22.1,30.01,NE,37,1.0,6.0,43,0.00,,,0.00,Wunderground v.1.15,2013-03-09 16:08:00,
2013-03-09 11:19:00,43.7,17.1,30.01,NE,53,6.0,6.0,34,0.00,,,0.00,Wunderground v.1.15,2013-03-09 16:19:00,
2013-03-09 11:28:00,44.0,18.7,30.01,NE,50,9.0,9.0,36,0.00,,,0.00,Wunderground v.1.15,2013-03-09 16:28:00,
2013-03-09 11:38:00,44.1,17.5,30.01,NE,55,9.0,9.0,34,0.00,,,0.00,Wunderground v.1.15,2013-03-09 16:38:00,
2013-03-09 11:48:00,45.2,17.0,30.01,NE,55,7.0,8.0,32,0.00,,,0.00,Wunderground v.1.15,2013-03-09 16:48:00,
2013-03-09 11:58:00,45.4,15.7,30.00,ENE,58,9.0,9.0,30,0.00,,,0.00,Wunderground v.1.15,2013-03-09 16:58:00,
2013-03-09 12:09:00,46.1,17.1,30.00,NE,34,5.0,5.0,31,0.00,,,0.00,Wunderground v.1.15,2013-03-09 17:09:00,
2013-03-09 12:18:00,47.0,16.3,30.00,NE,53,4.0,13.0,29,0.00,,,0.00,Wunderground v.1.15,2013-03-09 17:18:00,
2013-03-09 12:29:00,47.1,15.6,29.99,NE,35,6.0,6.0,28,0.00,,,0.00,Wunderground v.1.15,2013-03-09 17:29:00,
2013-03-09 12:38:00,47.2,14.0,29.99,NE,42,7.0,7.0,26,0.00,,,0.00,Wunderground v.1.15,2013-03-09 17:38:00,
2013-03-09 12:48:00,47.2,14.9,29.99,NE,46,7.0,7.0,27,0.00,,,0.00,Wunderground v.1.15,2013-03-09 17:48:00,
2013-03-09 12:58:00,47.2,14.9,29.98,NNE,15,7.0,12.0,27,0.00,,,0.00,Wunderground v.1.15,2013-03-09 17:58:00,
2013-03-09 13:08:00,47.5,15.1,29.98,NNE,19,8.0,14.0,27,0.00,,,0.00,Wunderground v.1.15,2013-03-09 18:08:00,
2013-03-09 13:19:00,48.2,16.6,29.98,NE,49,5.0,5.0,28,0.00,,,0.00,Wunderground v.1.15,2013-03-09 18:19:00,
2013-03-09 13:28:00,48.1,14.8,29.97,NNE,24,7.0,7.0,26,0.00,,,0.00,Wunderground v.1.15,2013-03-09 18:28:00,
2013-03-09 13:38:00,48.1,15.6,29.98,NNE,22,7.0,9.0,27,0.00,,,0.00,Wunderground v.1.15,2013-03-09 18:38:00,
2013-03-09 13:49:00,47.9,15.5,29.97,NE,36,7.0,7.0,27,0.00,,,0.00,Wunderground v.1.15,2013-03-09 18:49:00,
2013-03-09 13:58:00,48.0,16.4,29.97,NE,40,6.0,9.0,28,0.00,,,0.00,Wunderground v.1.15,2013-03-09 18:58:00,
2013-03-09 14:08:00,48.3,15.8,29.97,North,5,6.0,6.0,27,0.00,,,0.00,Wunderground v.1.15,2013-03-09 19:08:00,
2013-03-09 14:18:00,48.1,16.5,29.97,NE,47,7.0,7.0,28,0.00,,,0.00,Wunderground v.1.15,2013-03-09 19:18:00,
2013-03-09 14:28:00,48.1,17.3,29.97,NNE,21,6.0,6.0,29,0.00,,,0.00,Wunderground v.1.15,2013-03-09 19:28:00,
2013-03-09 14:38:00,48.1,17.3,29.97,NNE,32,6.0,10.0,29,0.00,,,0.00,Wunderground v.1.15,2013-03-09 19:38:00,
2013-03-09 14:49:00,48.4,17.6,29.97,NE,35,6.0,9.0,29,0.00,,,0.00,Wunderground v.1.15,2013-03-09 19:49:00,
2013-03-09 14:58:00,48.5,17.6,29.97,NNW,342,5.0,5.0,29,0.00,,,0.00,Wunderground v.1.15,2013-03-09 19:58:00,
2013-03-09 15:08:00,48.8,17.9,29.97,NW,318,4.0,4.0,29,0.00,,,0.00,Wunderground v.1.15,2013-03-09 20:08:00,
2013-03-09 15:18:00,48.6,16.9,29.97,NE,38,5.0,5.0,28,0.00,,,0.00,Wunderground v.1.15,2013-03-09 20:18:00,
2013-03-09 15:28:00,48.8,17.9,29.97,NNE,24,4.0,4.0,29,0.00,,,0.00,Wunderground v.1.15,2013-03-09 20:28:00,
2013-03-09 15:38:00,48.3,17.5,29.97,NNE,27,5.0,5.0,29,0.00,,,0.00,Wunderground v.1.15,2013-03-09 20:38:00,
2013-03-09 15:48:00,48.2,18.2,29.97,NE,52,5.0,5.0,30,0.00,,,0.00,Wunderground v.1.15,2013-03-09 20:48:00,
2013-03-09 15:58:00,48.6,17.7,29.96,NE,36,4.0,4.0,29,0.00,,,0.00,Wunderground v.1.15,2013-03-09 20:58:00,
2013-03-09 16:08:00,49.1,19.7,29.96,North,360,3.0,12.0,31,0.00,,,0.00,Wunderground v.1.15,2013-03-09 21:08:00,
2013-03-09 16:18:00,48.8,19.5,29.96,NNW,330,4.0,12.0,31,0.00,,,0.00,Wunderground v.1.15,2013-03-09 21:18:00,
2013-03-09 16:28:00,48.5,19.9,29.96,NW,323,3.0,3.0,32,0.00,,,0.00,Wunderground v.1.15,2013-03-09 21:28:00,
2013-03-09 16:38:00,47.8,20.8,29.96,NW,323,4.0,4.0,34,0.00,,,0.00,Wunderground v.1.15,2013-03-09 21:38:00,
2013-03-09 16:48:00,47.0,20.7,29.96,WNW,302,5.0,5.0,35,0.00,,,0.00,Wunderground v.1.15,2013-03-09 21:48:00,
2013-03-09 16:58:00,46.6,21.0,29.97,NNW,342,4.0,4.0,36,0.00,,,0.00,Wunderground v.1.15,2013-03-09 21:58:00,
2013-03-09 17:08:00,45.8,21.0,29.97,NW,324,3.0,10.0,37,0.00,,,0.00,Wunderground v.1.15,2013-03-09 22:08:00,
2013-03-09 17:18:00,45.2,21.1,29.97,NW,318,4.0,4.0,38,0.00,,,0.00,Wunderground v.1.15,2013-03-09 22:18:00,
2013-03-09 17:28:00,44.5,20.4,29.98,NNW,327,4.0,4.0,38,0.00,,,0.00,Wunderground v.1.15,2013-03-09 22:28:00,
2013-03-09 17:38:00,43.7,19.1,29.98,NNW,348,4.0,4.0,37,0.00,,,0.00,Wunderground v.1.15,2013-03-09 22:38:00,
2013-03-09 17:49:00,42.7,19.4,29.98,NW,309,3.0,4.0,39,0.00,,,0.00,Wunderground v.1.15,2013-03-09 22:49:00,
2013-03-09 17:58:00,42.2,19.0,29.98,NNW,331,3.0,3.0,39,0.00,,,0.00,Wunderground v.1.15,2013-03-09 22:58:00,
2013-03-09 18:08:00,41.8,19.8,29.99,South,190,1.0,9.0,41,0.00,,,0.00,Wunderground v.1.15,2013-03-09 23:08:00,
2013-03-09 18:18:00,41.1,19.2,29.99,South,191,0.0,9.0,41,0.00,,,0.00,Wunderground v.1.15,2013-03-09 23:18:00,
2013-03-09 18:28:00,40.5,19.2,29.99,NW,319,0.0,2.0,42,0.00,,,0.00,Wunderground v.1.15,2013-03-09 23:28:00,
2013-03-09 18:38:00,39.8,18.5,29.99,NNW,331,1.0,1.0,42,0.00,,,0.00,Wunderground v.1.15,2013-03-09 23:38:00,
2013-03-09 18:48:00,39.4,18.2,30.00,NNW,344,0.0,0.0,42,0.00,,,0.00,Wunderground v.1.15,2013-03-09 23:48:00,
2013-03-09 18:58:00,39.1,18.5,30.00,NNW,344,0.0,0.0,43,0.00,,,0.00,Wunderground v.1.15,2013-03-09 23:58:00,
2013-03-09 19:08:00,38.5,19.5,30.00,SSW,212,0.0,8.0,46,0.00,,,0.00,Wunderground v.1.15,2013-03-10 00:08:00,
2013-03-09 19:18:00,37.5,18.6,30.00,SSW,212,0.0,8.0,46,0.00,,,0.00,Wunderground v.1.15,2013-03-10 00:18:00,
2013-03-09 19:28:00,37.1,18.2,30.00,SSW,213,0.0,0.0,46,0.00,,,0.00,Wunderground v.1.15,2013-03-10 00:28:00,
2013-03-09 19:38:00,36.6,18.7,30.00,SSW,213,0.0,0.0,48,0.00,,,0.00,Wunderground v.1.15,2013-03-10 00:38:00,
2013-03-09 19:48:00,35.2,18.9,30.00,North,349,0.0,0.0,51,0.00,,,0.00,Wunderground v.1.15,2013-03-10 00:48:00,
2013-03-09 19:58:00,35.2,18.9,30.00,NNE,26,0.0,0.0,51,0.00,,,0.00,Wunderground v.1.15,2013-03-10 00:58:00,
2013-03-09 20:08:00,35.4,18.6,30.00,NNE,25,0.0,5.0,50,0.00,,,0.00,Wunderground v.1.15,2013-03-10 01:08:00,
2013-03-09 20:18:00,36.0,18.7,30.00,NNE,25,0.0,5.0,49,0.00,,,0.00,Wunderground v.1.15,2013-03-10 01:18:00,
2013-03-09 20:28:00,35.5,19.1,30.01,North,355,1.0,1.0,51,0.00,,,0.00,Wunderground v.1.15,2013-03-10 01:28:00,
2013-03-09 20:38:00,35.9,18.6,30.01,North,355,0.0,0.0,49,0.00,,,0.00,Wunderground v.1.15,2013-03-10 01:38:00,
2013-03-09 20:48:00,36.0,19.1,30.00,North,355,0.0,1.0,50,0.00,,,0.00,Wunderground v.1.15,2013-03-10 01:48:00,
2013-03-09 20:58:00,35.2,19.8,30.00,North,360,1.0,1.0,53,0.00,,,0.00,Wunderground v.1.15,2013-03-10 01:58:00,
2013-03-09 21:08:00,32.9,20.1,29.99,North,355,2.0,3.0,59,0.00,,,0.00,Wunderground v.1.15,2013-03-10 02:08:00,
2013-03-09 21:18:00,32.1,20.2,30.00,North,355,1.0,2.0,61,0.00,,,0.00,Wunderground v.1.15,2013-03-10 02:18:00,
2013-03-09 21:28:00,32.5,20.1,30.00,North,355,2.0,3.0,60,0.00,,,0.00,Wunderground v.1.15,2013-03-10 02:28:00,
2013-03-09 21:38:00,33.0,20.2,30.00,North,355,2.0,2.0,59,0.00,,,0.00,Wunderground v.1.15,2013-03-10 02:38:00,
2013-03-09 21:48:00,33.8,19.7,30.00,North,355,0.0,0.0,56,0.00,,,0.00,Wunderground v.1.15,2013-03-10 02:48:00,
2013-03-09 21:58:00,33.8,19.7,30.00,North,355,0.0,0.0,56,0.00,,,0.00,Wunderground v.1.15,2013-03-10 02:58:00,
2013-03-09 22:08:00,33.7,19.7,30.00,North,355,0.0,4.0,56,0.00,,,0.00,Wunderground v.1.15,2013-03-10 03:08:00,
2013-03-09 22:18:00,33.5,19.9,30.00,North,355,0.0,4.0,57,0.00,,,0.00,Wunderground v.1.15,2013-03-10 03:18:00,
2013-03-09 22:28:00,33.4,20.2,30.00,North,355,0.0,0.0,58,0.00,,,0.00,Wunderground v.1.15,2013-03-10 03:28:00,
2013-03-09 22:38:00,32.1,19.8,30.00,North,355,0.0,1.0,60,0.00,,,0.00,Wunderground v.1.15,2013-03-10 03:38:00,
2013-03-09 22:48:00,31.5,19.6,29.99,North,355,0.0,0.0,61,0.00,,,0.00,Wunderground v.1.15,2013-03-10 03:48:00,
2013-03-09 22:58:00,32.0,20.1,29.99,North,355,0.0,0.0,61,0.00,,,0.00,Wunderground v.1.15,2013-03-10 03:58:00,
2013-03-09 23:08:00,31.9,19.6,29.99,North,355,0.0,3.0,60,0.00,,,0.00,Wunderground v.1.15,2013-03-10 04:08:00,
2013-03-09 23:19:00,31.4,19.5,29.99,North,355,0.0,3.0,61,0.00,,,0.00,Wunderground v.1.15,2013-03-10 04:19:00,
2013-03-09 23:28:00,31.9,19.6,30.00,North,355,1.0,1.0,60,0.00,,,0.00,Wunderground v.1.15,2013-03-10 04:28:00,
2013-03-09 23:38:00,32.4,19.7,30.00,North,355,0.0,0.0,59,0.00,,,0.00,Wunderground v.1.15,2013-03-10 04:38:00,
2013-03-09 23:48:00,32.1,19.8,30.00,North,355,0.0,0.0,60,0.00,,,0.00,Wunderground v.1.15,2013-03-10 04:48:00,
2013-03-09 23:58:00,31.3,19.4,30.01,North,355,0.0,0.0,61,0.00,,,0.00,Wunderground v.1.15,2013-03-10 04:58:00,